Time,TemperatureF,DewpointF,PressureIn,WindDirection,WindDirectionDegrees,WindSpeedMPH,WindSpeedGustMPH,Humidity,HourlyPrecipIn,Conditions,Clouds,dailyrainin,SoftwareType,DateUTC
2013-03-13 00:07:00,54.9,53.0,30.03,West,272,0.0,2.0,92,0.00,,,0.00,weatherlink.com 1.10,2013-03-13 04:07:00,
2013-03-13 00:22:00,54.5,53.0,30.03,West,272,1.0,2.0,93,0.00,,,0.00,weatherlink.com 1.10,2013-03-13 04:22:00,
2013-03-13 00:37:00,54.1,52.0,30.02,West,272,0.0,1.0,93,0.00,,,0.00,weatherlink.com 1.10,2013-03-13 04:37:00,
2013-03-13 00:52:00,53.9,52.0,30.03,West,272,0.0,1.0,93,0.00,,,0.00,weatherlink.com 1.10,2013-03-13 04:52:00,
2013-03-13 01:07:00,53.5,52.0,30.03,West,272,0.0,1.0,93,0.00,,,0.00,weatherlink.com 1.10,2013-03-13 05:07:00,
2013-03-13 01:22:00,53.2,51.0,30.03,West,272,0.0,0.0,93,0.00,,,0.00,weatherlink.com 1.10,2013-03-13 05:22:00,
2013-03-13 01:37:00,52.9,51.0,30.02,West,275,0.0,2.0,94,0.00,,,0.00,weatherlink.com 1.10,2013-03-13 05:37:00,
2013-03-13 01:52:00,53.2,52.0,30.03,NW,304,2.0,4.0,94,0.00,,,0.00,weatherlink.com 1.10,2013-03-13 05:52:00,
2013-03-13 02:07:00,53.2,52.0,30.02,WNW,288,0.0,4.0,94,0.00,,,0.00,weatherlink.com 1.10,2013-03-13 06:07:00,
2013-03-13 02:22:00,53.0,52.0,30.02,WNW,282,2.0,4.0,95,0.01,,,0.01,weatherlink.com 1.10,2013-03-13 06:22:00,
2013-03-13 02:37:00,52.9,51.0,30.03,NW,314,0.0,3.0,94,0.01,,,0.01,weatherlink.com 1.10,2013-03-13 06:37:00,
2013-03-13 02:52:00,52.6,51.0,30.03,WNW,302,0.0,3.0,94,0.01,,,0.01,weatherlink.com 1.10,2013-03-13 06:52:00,
2013-03-13 03:07:00,52.2,51.0,30.03,WNW,302,0.0,2.0,94,0.01,,,0.01,weatherlink.com 1.10,2013-03-13 07:07:00,
2013-03-13 03:22:00,52.0,50.0,30.03,WNW,288,0.0,4.0,94,0.00,,,0.01,weatherlink.com 1.10,2013-03-13 07:22:00,
2013-03-13 03:37:00,51.7,50.0,30.02,NW,306,0.0,2.0,93,0.00,,,0.01,weatherlink.com 1.10,2013-03-13 07:37:00,
2013-03-13 03:52:00,51.4,50.0,30.02,NW,315,0.0,3.0,93,0.00,,,0.01,weatherlink.com 1.10,2013-03-13 07:52:00,
2013-03-13 04:22:00,52.4,50.0,30.02,NNW,330,0.0,1.0,91,0.00,,,0.01,weatherlink.com 1.10,2013-03-13 08:22:00,
2013-03-13 04:37:00,52.2,49.0,30.03,NW,320,0.0,2.0,90,0.00,,,0.01,weatherlink.com 1.10,2013-03-13 08:37:00,
2013-03-13 04:53:00,51.8,49.0,30.03,NW,311,0.0,1.0,90,0.00,,,0.01,weatherlink.com 1.10,2013-03-13 08:53:00,
2013-03-13 05:07:00,51.3,49.0,30.04,NW,309,0.0,2.0,90,0.00,,,0.01,weatherlink.com 1.10,2013-03-13 09:07:00,
2013-03-13 05:22:00,50.8,48.0,30.04,NW,307,2.0,2.0,90,0.00,,,0.01,weatherlink.com 1.10,2013-03-13 09:22:00,
2013-03-13 05:38:00,50.4,48.0,30.04,WNW,290,0.0,2.0,91,0.00,,,0.01,weatherlink.com 1.10,2013-03-13 09:38:00,
2013-03-13 05:52:00,50.1,48.0,30.04,WNW,290,0.0,1.0,91,0.00,,,0.01,weatherlink.com 1.10,2013-03-13 09:52:00,
2013-03-13 06:08:00,49.7,48.0,30.05,WNW,300,0.0,2.0,92,0.00,,,0.01,weatherlink.com 1.10,2013-03-13 10:08:00,
2013-03-13 06:23:00,49.4,47.0,30.06,WNW,285,0.0,3.0,91,0.00,,,0.01,weatherlink.com 1.10,2013-03-13 10:23:00,
2013-03-13 06:38:00,49.1,47.0,30.06,NNW,348,4.0,5.0,91,0.00,,,0.01,weatherlink.com 1.10,2013-03-13 10:38:00,
2013-03-13 06:53:00,50.5,47.0,30.07,NNE,25,3.0,7.0,89,0.00,,,0.01,weatherlink.com 1.10,2013-03-13 10:53:00,
2013-03-13 07:08:00,51.4,47.0,30.08,North,10,2.0,8.0,85,0.00,,,0.01,weatherlink.com 1.10,2013-03-13 11:08:00,
2013-03-13 07:23:00,51.6,47.0,30.09,NNE,30,0.0,8.0,84,0.00,,,0.01,weatherlink.com 1.10,2013-03-13 11:23:00,
2013-03-13 07:38:00,51.3,47.0,30.09,NNW,342,1.0,5.0,84,0.00,,,0.01,weatherlink.com 1.10,2013-03-13 11:38:00,
2013-03-13 07:53:00,50.9,46.0,30.10,NNW,338,0.0,4.0,84,0.00,,,0.01,weatherlink.com 1.10,2013-03-13 11:53:00,
2013-03-13 08:08:00,50.8,47.0,30.11,NNW,336,2.0,5.0,85,0.00,,,0.01,weatherlink.com 1.10,2013-03-13 12:08:00,
2013-03-13 08:23:00,51.5,47.0,30.11,NNW,340,5.0,7.0,83,0.00,,,0.01,weatherlink.com 1.10,2013-03-13 12:23:00,
2013-03-13 08:38:00,52.4,46.0,30.11,NE,34,4.0,8.0,80,0.00,,,0.01,weatherlink.com 1.10,2013-03-13 12:38:00,
2013-03-13 08:53:00,53.0,47.0,30.12,North,355,3.0,9.0,79,0.00,,,0.01,weatherlink.com 1.10,2013-03-13 12:53:00,
2013-03-13 09:08:00,53.9,47.0,30.12,NNW,342,6.0,9.0,77,0.00,,,0.01,weatherlink.com 1.10,2013-03-13 13:08:00,
2013-03-13 09:23:00,54.8,47.0,30.13,North,5,4.0,10.0,75,0.00,,,0.01,weatherlink.com 1.10,2013-03-13 13:23:00,
2013-03-13 09:38:00,55.9,47.0,30.13,North,355,5.0,9.0,71,0.00,,,0.01,weatherlink.com 1.10,2013-03-13 13:38:00,
2013-03-13 09:53:00,57.6,47.0,30.13,NNE,22,3.0,8.0,68,0.00,,,0.01,weatherlink.com 1.10,2013-03-13 13:53:00,
2013-03-13 10:08:00,59.3,47.0,30.14,NNE,29,5.0,11.0,63,0.00,,,0.01,weatherlink.com 1.10,2013-03-13 14:08:00,
2013-03-13 10:23:00,61.1,46.0,30.14,NE,34,3.0,10.0,59,0.00,,,0.01,weatherlink.com 1.10,2013-03-13 14:23:00,
2013-03-13 10:38:00,62.5,44.0,30.14,NNW,336,3.0,12.0,51,0.00,,,0.01,weatherlink.com 1.10,2013-03-13 14:38:00,
2013-03-13 10:53:00,63.8,43.0,30.15,NNE,33,5.0,12.0,47,0.00,,,0.01,weatherlink.com 1.10,2013-03-13 14:53:00,
2013-03-13 11:08:00,65.0,42.0,30.15,NE,38,9.0,11.0,43,0.00,,,0.01,weatherlink.com 1.10,2013-03-13 15:08:00,
2013-03-13 11:24:00,66.7,44.0,30.15,NNE,29,4.0,11.0,44,0.00,,,0.01,weatherlink.com 1.10,2013-03-13 15:24:00,
2013-03-13 11:39:00,67.4,43.0,30.15,North,9,4.0,13.0,41,0.00,,,0.01,weatherlink.com 1.10,2013-03-13 15:39:00,
2013-03-13 11:54:00,68.1,39.0,30.15,NNE,24,5.0,12.0,34,0.00,,,0.01,weatherlink.com 1.10,2013-03-13 15:54:00,
2013-03-13 12:09:00,69.4,39.0,30.14,NW,314,4.0,14.0,33,0.00,,,0.01,weatherlink.com 1.10,2013-03-13 16:09:00,
2013-03-13 12:24:00,70.9,40.0,30.15,NW,325,5.0,12.0,33,0.00,,,0.01,weatherlink.com 1.10,2013-03-13 16:24:00,
2013-03-13 12:39:00,71.5,41.0,30.15,NNE,23,8.0,10.0,33,0.00,,,0.01,weatherlink.com 1.10,2013-03-13 16:39:00,
2013-03-13 12:54:00,71.7,39.0,30.15,WNW,297,4.0,10.0,31,0.00,,,0.01,weatherlink.com 1.10,2013-03-13 16:54:00,
2013-03-13 13:09:00,72.3,39.0,30.14,NNE,24,5.0,9.0,30,0.00,,,0.01,weatherlink.com 1.10,2013-03-13 17:09:00,
2013-03-13 13:24:00,72.5,40.0,30.14,NNE,14,5.0,12.0,31,0.00,,,0.01,weatherlink.com 1.10,2013-03-13 17:24:00,
2013-03-13 13:39:00,73.0,38.0,30.13,NNE,16,6.0,13.0,28,0.00,,,0.01,weatherlink.com 1.10,2013-03-13 17:39:00,
2013-03-13 13:54:00,73.9,40.0,30.12,North,351,3.0,11.0,29,0.00,,,0.01,weatherlink.com 1.10,2013-03-13 17:54:00,
2013-03-13 14:09:00,74.2,39.0,30.12,WNW,299,3.0,11.0,28,0.00,,,0.01,weatherlink.com 1.10,2013-03-13 18:09:00,
2013-03-13 14:24:00,74.7,38.0,30.11,NW,315,4.0,8.0,27,0.00,,,0.01,weatherlink.com 1.10,2013-03-13 18:24:00,
2013-03-13 14:39:00,75.5,39.0,30.11,NNE,22,5.0,12.0,27,0.00,,,0.01,weatherlink.com 1.10,2013-03-13 18:39:00,
2013-03-13 14:54:00,74.6,40.0,30.10,WNW,285,3.0,10.0,29,0.00,,,0.01,weatherlink.com 1.10,2013-03-13 18:54:00,
2013-03-13 15:09:00,75.4,41.0,30.09,NNW,348,3.0,11.0,29,0.00,,,0.01,weatherlink.com 1.10,2013-03-13 19:09:00,
2013-03-13 15:24:00,74.8,41.0,30.09,NNE,26,4.0,12.0,30,0.00,,,0.01,weatherlink.com 1.10,2013-03-13 19:24:00,
2013-03-13 15:39:00,75.4,38.0,30.08,NW,314,3.0,9.0,26,0.00,,,0.01,weatherlink.com 1.10,2013-03-13 19:39:00,
2013-03-13 15:54:00,75.2,41.0,30.08,North,355,2.0,11.0,29,0.00,,,0.01,weatherlink.com 1.10,2013-03-13 19:54:00,
2013-03-13 16:09:00,75.7,39.0,30.07,NNE,32,4.0,10.0,27,0.00,,,0.01,weatherlink.com 1.10,2013-03-13 20:09:00,
2013-03-13 16:24:00,75.7,40.0,30.07,North,5,2.0,8.0,28,0.00,,,0.01,weatherlink.com 1.10,2013-03-13 20:24:00,
2013-03-13 16:39:00,75.8,40.0,30.06,NW,321,4.0,7.0,28,0.00,,,0.01,weatherlink.com 1.10,2013-03-13 20:39:00,
2013-03-13 16:54:00,75.4,39.0,30.06,NW,320,3.0,8.0,27,0.00,,,0.01,weatherlink.com 1.10,2013-03-13 20:54:00,
2013-03-13 17:09:00,75.2,41.0,30.06,NE,42,6.0,8.0,29,0.00,,,0.01,weatherlink.com 1.10,2013-03-13 21:09:00,
2013-03-13 17:24:00,75.2,40.0,30.05,NNW,332,6.0,10.0,28,0.00,,,0.01,weatherlink.com 1.10,2013-03-13 21:24:00,
2013-03-13 17:39:00,75.0,40.0,30.05,WNW,284,5.0,8.0,28,0.00,,,0.01,weatherlink.com 1.10,2013-03-13 21:39:00,
2013-03-13 17:54:00,74.9,39.0,30.06,NW,314,1.0,6.0,27,0.00,,,0.01,weatherlink.com 1.10,2013-03-13 21:54:00,
2013-03-13 18:09:00,74.2,39.0,30.05,WNW,301,4.0,6.0,28,0.00,,,0.01,weatherlink.com 1.10,2013-03-13 22:09:00,
2013-03-13 18:24:00,73.5,37.0,30.06,WNW,294,2.0,8.0,27,0.00,,,0.01,weatherlink.com 1.10,2013-03-13 22:24:00,
2013-03-13 18:39:00,72.3,37.0,30.06,WNW,299,2.0,6.0,28,0.00,,,0.01,weatherlink.com 1.10,2013-03-13 22:39:00,
2013-03-13 18:54:00,71.5,38.0,30.06,West,279,0.0,5.0,29,0.00,,,0.01,weatherlink.com 1.10,2013-03-13 22:54:00,
2013-03-13 19:09:00,69.8,38.0,30.06,WNW,298,0.0,1.0,31,0.00,,,0.01,weatherlink.com 1.10,2013-03-13 23:09:00,
2013-03-13 19:24:00,69.6,39.0,30.06,WNW,298,0.0,1.0,33,0.00,,,0.01,weatherlink.com 1.10,2013-03-13 23:24:00,
2013-03-13 19:39:00,67.7,48.0,30.06,WNW,298,0.0,0.0,49,0.00,,,0.01,weatherlink.com 1.10,2013-03-13 23:39:00,
2013-03-13 19:54:00,64.0,47.0,30.07,WNW,298,0.0,0.0,54,0.00,,,0.01,weatherlink.com 1.10,2013-03-13 23:54:00,
2013-03-13 20:09:00,61.3,46.0,30.07,WNW,298,0.0,0.0,57,0.00,,,0.01,weatherlink.com 1.10,2013-03-14 00:09:00,
2013-03-13 20:24:00,60.4,44.0,30.08,NW,318,0.0,4.0,55,0.00,,,0.01,weatherlink.com 1.10,2013-03-14 00:24:00,
2013-03-13 20:39:00,60.5,44.0,30.09,WNW,290,2.0,5.0,55,0.00,,,0.01,weatherlink.com 1.10,2013-03-14 00:39:00,
2013-03-13 20:54:00,61.3,45.0,30.10,WNW,287,3.0,5.0,55,0.00,,,0.01,weatherlink.com 1.10,2013-03-14 00:54:00,
2013-03-13 21:09:00,61.0,45.0,30.11,WNW,298,2.0,5.0,55,0.00,,,0.01,weatherlink.com 1.10,2013-03-14 01:09:00,
2013-03-13 21:24:00,60.3,45.0,30.12,West,279,0.0,4.0,58,0.00,,,0.01,weatherlink.com 1.10,2013-03-14 01:24:00,
2013-03-13 21:39:00,59.4,44.0,30.13,NW,319,2.0,11.0,58,0.00,,,0.01,weatherlink.com 1.10,2013-03-14 01:39:00,
2013-03-13 21:54:00,59.1,44.0,30.14,WNW,298,1.0,6.0,57,0.00,,,0.01,weatherlink.com 1.10,2013-03-14 01:54:00,
2013-03-13 22:09:00,58.2,44.0,30.14,WNW,289,3.0,6.0,59,0.00,,,0.01,weatherlink.com 1.10,2013-03-14 02:09:00,
2013-03-13 22:24:00,57.4,43.0,30.15,NW,321,2.0,4.0,60,0.00,,,0.01,weatherlink.com 1.10,2013-03-14 02:24:00,
2013-03-13 22:39:00,56.6,44.0,30.15,WNW,300,1.0,3.0,63,0.00,,,0.01,weatherlink.com 1.10,2013-03-14 02:39:00,
2013-03-13 22:54:00,55.8,44.0,30.16,WNW,285,0.0,3.0,65,0.00,,,0.01,weatherlink.com 1.10,2013-03-14 02:54:00,
2013-03-13 23:09:00,55.1,45.0,30.16,West,277,0.0,2.0,68,0.00,,,0.01,weatherlink.com 1.10,2013-03-14 03:09:00,
2013-03-13 23:40:00,53.5,44.0,30.17,NE,37,0.0,4.0,71,0.00,,,0.01,weatherlink.com 1.10,2013-03-14 03:40:00,
2013-03-13 23:55:00,53.0,43.0,30.17,NE,37,0.0,0.0,70,0.00,,,0.01,weatherlink.com 1.10,2013-03-14 03:55:00,